In Rescue
 
Open Full Screen Window  High Contrast Mode
September 18, 2020 11:34 PM EDT
Weather Information
Wind Direction
  ---
Wind Speed
  00 kt (0 mph)
Wind Gust
  00 kt (0 mph)
Altimeter
30.40 in
Visibility
10 SM
Temperature
03° C
37° F
Dewpoint
02° C
36° F
Humidity
93%
1hr Rain Fall
00.00 in.
24hr Rain Fall
00.00 in.
Sky Condition
Clear
VFR

METAR KIKW 190334Z AUTO 00000KT 10SM CLR 03/02 A3040 RMK AO2 T00290020

FAA Disclaimer: The data displayed is for advisory purposes only and is not to be used for flight planning or operations.